• Join FlightAware (Why Join?)
  • Login
  • US Flag 
08:39PM EDT


 

Airport Tracker/Info


-or-


 

Live Flight TrackerFlight Track Log ✈ UAL3821 ✈ 21-Apr-2013 ✈ KEWR - KMKE

Flight Track Log - Related Links

Times and Time Zones

All times are in EDT time to prevent confusion due to time zone crossing. See the UAL3821 flight status page for this flight to view local times or setup timezone preferences in your user account.

Time Position Orientation Groundspeed Altitude Reporting Facility
EDT Latitude Longitude Course Direction KTS MPH feet Rate Location/Type
11:02AM 40.7300 -74.1450 316° Northwest 170 196 2,200  Level New York Center
11:02AM 40.7500 -74.1667 321° Northwest 204 235 3,000 2,160 Climbing New York TRACON
11:03AM 40.8000 -74.2167 323° Northwest 228 262 5,300 2,580 Climbing New York TRACON
11:04AM 40.8333 -74.2833 303° West 229 264 8,000 2,400 Climbing New York TRACON
11:05AM 40.9750 -74.5047 319° Northwest  Level FlightAware Approximate
11:05AM 40.8833 -74.3333 323° Northwest 234 269 10,100  Level New York TRACON
11:06AM 41.0464 -74.5929 316° Northwest  Level FlightAware Approximate
11:06AM 40.9106 -74.3817 307° West 260 299 10,600  Level New York Center
11:07AM 41.1165 -74.6831 316° Northwest  Level FlightAware Approximate
11:07AM 40.9625 -74.4558 313° West 302 348 11,800  Level New York Center
11:08AM 41.0222 -74.5389 314° West 313 360 13,100 1,440 Climbing New York Center
11:09AM 41.0842 -74.6250 314° West 318 366 14,700 1,440 Climbing New York Center
11:10AM 41.1439 -74.7108 313° West 318 366 16,100 1,380 Climbing New York Center
11:11AM 41.1883 -74.8128 300° West 319 367 17,500 840 Climbing New York Center
11:12AM 41.2231 -74.8922 300° West 319 367 17,800 900 Climbing New York Center
11:13AM 41.2767 -75.0197 299° West 330 380 19,300 1,380 Climbing New York Center
11:14AM 41.3169 -75.1161 299° West 330 380 20,700 1,260 Climbing New York Center
11:15AM 41.3633 -75.2186 301° West 330 380 21,900 1,200 Climbing New York Center
11:16AM 41.4092 -75.3239 300° West 330 380 23,100 1,200 Climbing New York Center
11:17AM 41.4528 -75.4322 298° West 336 387 24,400 1,140 Climbing New York Center
11:18AM 41.4922 -75.5400 296° West 336 387 25,400 1,020 Climbing New York Center
11:19AM 41.5286 -75.6700 291° West 331 381 26,500 1,020 Climbing New York Center
11:20AM 41.5578 -75.7694 291° West 331 381 27,500 960 Climbing New York Center
11:21AM 41.5906 -75.8828 291° West 331 381 28,500 960 Climbing New York Center
11:22AM 41.6211 -75.9933 290° West 331 381 29,500 960 Climbing New York Center
11:23AM 41.6536 -76.1069 291° West 331 381 30,500 960 Climbing New York Center
11:24AM 41.6858 -76.2206 291° West 331 381 31,500 900 Climbing New York Center
11:25AM 41.7194 -76.3511 289° West 336 387 32,300 960 Climbing New York Center
11:26AM 41.7519 -76.4539 293° West 336 387 33,500 1,140 Climbing New York Center
11:27AM 41.7833 -76.5817 288° West 336 387 34,600 720 Climbing New York Center
11:29AM 41.8622 -76.8636 291° West 325 374 36,000 360 Climbing Cleveland Center
11:30AM 41.8994 -76.9869 292° West 343 395 36,000  Level Cleveland Center
11:31AM 41.9328 -77.1219 288° West 362 417 36,000  Level Cleveland Center
11:32AM 41.9703 -77.2567 291° West 375 432 36,000  Level Cleveland Center
11:33AM 42.0053 -77.3892 290° West 380 437 36,000  Level Cleveland Center
11:34AM 42.0422 -77.5242 290° West 380 437 36,000  Level Cleveland Center
11:35AM 42.0750 -77.6542 289° West 380 437 36,000  Level Cleveland Center
11:36AM 42.1094 -77.7842 290° West 380 437 36,000  Level Cleveland Center
11:37AM 42.1458 -77.9169 290° West 380 437 36,000  Level Cleveland Center
11:38AM 42.1803 -78.0528 289° West 380 437 36,000  Level Cleveland Center
11:39AM 42.2142 -78.1833 289° West 380 437 36,000  Level Cleveland Center
11:40AM 42.2506 -78.3194 290° West 380 437 36,000  Level Cleveland Center
11:41AM 42.2842 -78.4531 289° West 380 437 36,000  Level Cleveland Center
11:42AM 42.3200 -78.5867 290° West 380 437 36,000  Level Cleveland Center
11:43AM 42.3536 -78.7203 289° West 380 437 36,000  Level Cleveland Center
11:44AM 42.3889 -78.8572 289° West 380 437 36,000  Level Cleveland Center
11:45AM 42.4200 -78.9942 287° West 380 437 36,000  Level Cleveland Center
11:46AM 42.4531 -79.1283 289° West 380 437 36,000  Level Cleveland Center
11:47AM 42.4881 -79.2683 289° West 380 437 36,000  Level Cleveland Center
11:48AM 42.5000 -79.4089 277° West 380 437 36,000  Level Cleveland Center
11:49AM 42.5056 -79.5494 273° West 380 437 36,000  Level Cleveland Center
11:50AM 42.5131 -79.6958 274° West 385 443 36,000  Level Cleveland Center
11:51AM 42.5225 -79.8394 275° West 385 443 36,000  Level Cleveland Center
11:52AM 42.5294 -79.9803 274° West 385 443 36,000  Level Cleveland Center
11:53AM 42.5300 -80.1128 270° West 385 443 36,000  Level Cleveland Center
11:54AM 42.5369 -80.2592 274° West 380 437 36,000  Level Cleveland Center
11:55AM 42.5392 -80.4000 271° West 380 437 36,000  Level Cleveland Center
11:56AM 42.5478 -80.5436 275° West 385 443 36,000  Level Cleveland Center
11:57AM 42.5519 -80.6875 272° West 385 443 36,000  Level Cleveland Center
11:58AM 42.5578 -80.8311 273° West 385 443 36,000  Level Cleveland Center
11:59AM 42.5636 -80.9778 273° West 385 443 36,000  Level Cleveland Center
12:00PM 42.5694 -81.1331 273° West 385 443 36,000  Level Cleveland Center
12:01PM 42.5747 -81.2767 273° West 385 443 36,000  Level Cleveland Center
12:02PM 42.5800 -81.4261 273° West 385 443 36,000  Level Cleveland Center
12:03PM 42.6019 -81.5675 282° West 392 451 36,000  Level Cleveland Center
12:04PM 42.6278 -81.7092 284° West 392 451 36,000  Level Cleveland Center
12:05PM 42.6514 -81.8394 284° West 392 451 36,000  Level Cleveland Center
12:06PM 42.6767 -81.9839 283° West 392 451 36,000  Level Cleveland Center
12:07PM 42.7000 -82.1286 282° West 392 451 36,000  Level Cleveland Center
12:08PM 42.7250 -82.2761 283° West 397 457 36,000  Level Cleveland Center
12:09PM 42.7497 -82.4211 283° West 397 457 36,000  Level Cleveland Center
12:10PM 42.7725 -82.5658 282° West 397 457 36,000  Level Cleveland Center
12:11PM 42.7969 -82.7111 283° West 392 451 36,000  Level Cleveland Center
12:12PM 42.8214 -82.8533 283° West 392 451 36,000  Level Cleveland Center
12:13PM 42.8453 -83.0014 282° West 397 457 36,000  Level Cleveland Center
12:14PM 42.8694 -83.1469 283° West 397 457 36,000  Level Cleveland Center
12:15PM 42.8931 -83.2925 283° West 392 451 36,000  Level Cleveland Center
12:16PM 42.9167 -83.4408 282° West 397 457 36,000  Level Cleveland Center
12:17PM 42.9400 -83.5867 282° West 397 457 36,000  Level Cleveland Center
12:18PM 42.9633 -83.7325 282° West 397 457 36,000  Level Cleveland Center
12:19PM 42.9781 -83.8781 278° West 391 450 36,000  Level Cleveland Center
12:20PM 42.9922 -84.0350 277° West 397 457 36,000  Level Cleveland Center
12:21PM 43.0064 -84.1833 277° West 402 463 36,000  Level Cleveland Center
12:22PM 43.0203 -84.3347 277° West 402 463 36,000  Level Cleveland Center
12:23PM 43.0317 -84.4233 280° West 400 460 36,000  Level Chicago Center
12:24PM 43.0442 -84.5722 277° West 397 457 36,000  Level Chicago Center
12:25PM 43.0578 -84.7225 277° West 398 458 36,000  Level Chicago Center
12:26PM 43.0750 -84.9006 278° West 396 456 36,000 -60 Level Chicago Center
12:27PM 43.0872 -85.0481 277° West 393 452 35,900 -660 Descending Chicago Center
12:28PM 43.0994 -85.1969 276° West 393 452 34,700 -1,200 Descending Chicago Center
12:29PM 43.1122 -85.3442 277° West 392 451 33,500 -1,320 Descending Chicago Center
12:30PM 43.1219 -85.4922 275° West 392 451 32,100 -1,680 Descending Chicago Center
12:31PM 43.1261 -85.6375 272° West 388 447 30,100 -2,160 Descending Chicago Center
12:32PM 43.1303 -85.8167 272° West 394 453 27,700 -2,160 Descending Chicago Center
12:33PM 43.1333 -85.9675 272° West 403 464 25,700 -1,800 Descending Chicago Center
12:34PM 43.1372 -86.1172 272° West 406 467 24,100 -840 Descending Chicago Center
12:35PM 43.1397 -86.2664 271° West 402 463 24,000 -1,020 Descending Chicago Center
12:36PM 43.1433 -86.4414 272° West 387 445 22,100 -2,100 Descending Chicago Center
12:37PM 43.1450 -86.5867 271° West 384 442 19,700 -2,040 Descending Chicago Center
12:38PM 43.1478 -86.7236 272° West 365 420 18,000 -1,980 Descending Chicago Center
12:39PM 43.1494 -86.8642 271° West 370 426 15,700 -1,980 Descending Chicago Center
12:40PM 43.1517 -86.9961 271° West 349 402 14,000 -780 Descending Chicago Center
12:41PM 43.1486 -87.1506 268° West 340 391 14,100 -840 Climbing Chicago Center
12:42PM 43.1369 -87.2761 263° West 334 384 12,300 -1,500 Descending Chicago Center
12:43PM 43.1217 -87.3911 260° West 293 337 11,000 -1,440 Descending Chicago Center
12:44PM 43.1106 -87.4867 261° West 259 298 9,400 -1,620 Descending Chicago Center
12:46PM 43.0992 -87.5811 261° West 253 291 7,700 -1,620 Descending Chicago Center
12:47PM 43.0867 -87.6722 259° West 245 282 6,100 -1,500 Descending Chicago Center
12:48PM 43.0764 -87.7614 261° West 240 276 4,600 -1,440 Descending Chicago Center
12:49PM 43.0611 -87.8500 257° West 239 275 3,200 -1,380 Descending Chicago Center